Time;durP1;ratioP1;P1;durP2;ratioP2;P2;SDS_P1;SDS_P2;PMS_P1;PMS_P2;Temp;Humidity;BMP_temperature;BMP_pressure;BME280_temperature;BME280_humidity;BME280_pressure;Samples;Min_cycle;Max_cycle;Signal;HPM_P1;HPM_P2
2023/06/07 00:01:55;;;;;;;41.47;5.77;;;;;;;23.13;62.17;99670.88;7313806;19;132121;-40
2023/06/07 00:04:21;;;;;;;47.20;6.27;;;;;;;23.12;61.54;99673.66;7314801;19;129435;-42
2023/06/07 00:06:47;;;;;;;51.10;5.93;;;;;;;23.06;61.93;99658.47;7316090;19;128889;-40
2023/06/07 00:09:13;;;;;;;45.55;6.28;;;;;;;23.11;62.07;99672.81;7315941;19;129853;-42
2023/06/07 00:11:39;;;;;;;40.70;5.43;;;;;;;23.11;62.04;99672.81;7314862;19;129807;-41
2023/06/07 00:14:05;;;;;;;35.25;5.63;;;;;;;23.13;61.66;99676.13;7314424;19;129898;-39
2023/06/07 00:16:31;;;;;;;61.03;6.53;;;;;;;23.13;61.74;99667.41;7314479;19;129057;-40
2023/06/07 00:18:57;;;;;;;60.83;6.87;;;;;;;23.13;61.83;99667.41;7316282;19;129290;-40
2023/06/07 00:21:23;;;;;;;30.63;5.15;;;;;;;23.13;62.17;99659.56;7311424;19;130446;-41
2023/06/07 00:23:48;;;;;;;39.80;5.73;;;;;;;23.13;61.47;99664.81;7312203;19;129376;-41
2023/06/07 00:26:14;;;;;;;41.58;5.82;;;;;;;23.08;61.55;99646.88;7315751;19;129217;-40
2023/06/07 00:28:39;;;;;;;45.80;7.07;;;;;;;23.13;61.57;99659.56;7317511;19;130123;-41
2023/06/07 00:31:05;;;;;;;34.13;5.90;;;;;;;23.12;62.00;99653.47;7315178;19;130849;-41
2023/06/07 00:33:30;;;;;;;57.00;6.87;;;;;;;23.11;62.11;99651.00;7315784;19;129487;-39
2023/06/07 00:35:56;;;;;;;37.07;5.83;;;;;;;23.01;61.44;99637.13;7316499;19;128970;-41
2023/06/07 00:38:23;;;;;;;46.03;6.10;;;;;;;23.13;61.39;99649.06;7315491;19;129384;-41
2023/06/07 00:40:49;;;;;;;36.17;6.18;;;;;;;23.11;61.74;99651.84;7314261;19;130216;-39
2023/06/07 00:43:14;;;;;;;59.87;6.97;;;;;;;23.03;61.57;99632.56;7316177;19;129161;-41
2023/06/07 00:45:39;;;;;;;58.45;7.07;;;;;;;23.12;61.40;99652.66;7314415;19;128756;-38
2023/06/07 00:48:05;;;;;;;82.90;8.90;;;;;;;23.12;62.03;99642.97;7315163;19;130248;-40
2023/06/07 00:50:31;;;;;;;71.07;8.00;;;;;;;23.11;61.93;99640.50;7313496;19;130250;-42
2023/06/07 00:52:56;;;;;;;51.67;6.20;;;;;;;23.10;61.55;99646.75;7313427;19;129647;-42
2023/06/07 00:55:22;;;;;;;48.83;6.78;;;;;;;23.02;61.81;99636.16;7310421;19;129020;-42
2023/06/07 00:57:47;;;;;;;72.67;8.03;;;;;;;23.12;61.92;99647.44;7309774;19;129515;-38
2023/06/07 01:00:15;;;;;;;39.53;6.60;;;;;;;23.12;61.44;99650.03;7314819;19;129379;-40
2023/06/07 01:02:41;;;;;;;63.97;7.65;;;;;;;23.11;60.95;99643.97;7310321;19;129573;-40
2023/06/07 01:05:07;;;;;;;59.13;7.45;;;;;;;22.99;61.46;99631.22;7312512;19;129082;-42
2023/06/07 01:07:33;;;;;;;35.92;5.70;;;;;;;23.09;61.85;99642.44;7313522;19;130207;-42
2023/06/07 01:10:00;;;;;;;22.93;5.67;;;;;;;23.08;61.42;99635.56;7314539;19;129586;-39
2023/06/07 01:12:26;;;;;;;;;;;;;;;23.17;62.31;99640.75;7313141;19;129394;-41
2023/06/07 01:14:53;;;;;;;37.42;6.60;;;;;;;23.12;62.12;99642.19;7311939;19;128951;-41
2023/06/07 01:17:24;;;;;;;;;;;;;;;23.06;61.86;99627.00;7309978;19;129664;-39
2023/06/07 01:19:53;;;;;;;71.20;7.95;;;;;;;23.10;61.76;99638.88;7313143;19;130904;-40
2023/06/07 01:22:24;;;;;;;55.15;6.78;;;;;;;23.09;61.86;99634.59;7311406;19;129471;-39
2023/06/07 01:24:50;;;;;;;25.27;5.60;;;;;;;23.07;62.01;99636.56;7310405;19;130488;-41
2023/06/07 01:27:16;;;;;;;38.30;5.65;;;;;;;23.10;61.50;99633.63;7311574;19;130854;-42
2023/06/07 01:29:44;;;;;;;39.72;6.03;;;;;;;23.08;61.80;99625.91;7313009;19;129890;-42
2023/06/07 01:32:12;;;;;;;49.50;6.68;;;;;;;23.08;61.30;99627.69;7313688;19;128891;-41
2023/06/07 01:34:38;;;;;;;32.72;6.20;;;;;;;23.08;61.32;99631.16;7310054;19;129836;-41
2023/06/07 01:37:05;;;;;;;46.97;6.33;;;;;;;23.09;61.72;99631.97;7313493;19;130235;-40
2023/06/07 01:39:32;;;;;;;36.00;6.30;;;;;;;23.08;61.88;99622.47;7313517;19;129917;-40
2023/06/07 01:41:59;;;;;;;50.67;6.32;;;;;;;22.99;61.47;99605.81;7312330;19;129201;-39
2023/06/07 01:44:25;;;;;;;41.83;5.90;;;;;;;23.10;61.55;99623.13;7312328;19;129007;-40
2023/06/07 01:46:51;;;;;;;72.25;8.00;;;;;;;23.08;61.93;99620.66;7314037;19;129937;-42
2023/06/07 01:49:19;;;;;;;33.00;5.73;;;;;;;23.09;61.78;99624.09;7313862;19;129802;-38
2023/06/07 01:51:45;;;;;;;61.55;7.38;;;;;;;23.07;61.54;99615.56;7312187;19;129965;-38
2023/06/07 01:54:12;;;;;;;66.93;8.07;;;;;;;23.08;61.96;99614.59;7308659;19;129887;-40
2023/06/07 01:56:53;;;;;;;;;;;;;;;23.16;61.37;99617.28;7314296;19;129480;-40
2023/06/07 01:59:36;;;;;;;26.00;5.43;;;;;;;22.99;61.71;99591.91;7313158;19;130500;-41
2023/06/07 02:02:07;;;;;;;81.45;8.02;;;;;;;23.06;61.77;99611.28;7304145;19;129659;-38
2023/06/07 02:04:40;;;;;;;70.35;8.05;;;;;;;23.09;61.48;99609.19;7310234;19;129312;-42
2023/06/07 02:07:09;;;;;;;82.03;8.32;;;;;;;23.06;61.65;99606.03;7311783;19;129293;-41
2023/06/07 02:09:38;;;;;;;27.80;5.88;;;;;;;22.99;61.57;99594.53;7311907;19;131021;-41
2023/06/07 02:12:06;;;;;;;51.42;6.93;;;;;;;23.03;61.01;99598.47;7310868;19;129265;-39
2023/06/07 02:14:32;;;;;;;42.92;6.97;;;;;;;23.05;61.43;99604.41;7309961;19;129133;-42
2023/06/07 02:16:57;;;;;;;41.95;6.18;;;;;;;23.06;61.31;99600.78;7313033;19;129361;-41
2023/06/07 02:19:24;;;;;;;87.83;8.30;;;;;;;23.06;61.38;99606.03;7312861;19;130423;-42
2023/06/07 02:21:50;;;;;;;46.42;6.68;;;;;;;23.05;61.47;99607.03;7310829;19;129452;-41
2023/06/07 02:24:16;;;;;;;55.57;7.23;;;;;;;23.06;61.50;99596.38;7309940;19;130078;-39
2023/06/07 02:26:42;;;;;;;35.70;5.83;;;;;;;23.05;61.83;99601.78;7312356;19;131133;-41
2023/06/07 02:29:08;;;;;;;81.97;7.73;;;;;;;23.06;61.56;99596.38;7309157;19;129766;-40
2023/06/07 02:31:34;;;;;;;34.08;5.95;;;;;;;23.04;61.02;99595.69;7311671;19;129171;-40
2023/06/07 02:33:59;;;;;;;40.17;6.53;;;;;;;23.07;61.78;99586.72;7312549;19;128913;-39
2023/06/07 02:36:25;;;;;;;50.00;6.30;;;;;;;23.08;61.41;99588.38;7309216;19;129198;-39
2023/06/07 02:38:51;;;;;;;23.42;5.63;;;;;;;23.05;61.43;99583.41;7312910;19;130209;-40
2023/06/07 02:41:17;;;;;;;38.72;6.20;;;;;;;23.04;61.19;99582.59;7310441;19;129022;-42
2023/06/07 02:43:43;;;;;;;34.57;5.90;;;;;;;23.04;61.03;99582.59;7311154;19;128988;-42
2023/06/07 02:46:11;;;;;;;48.08;6.68;;;;;;;22.97;61.36;99570.25;7310028;19;129287;-41
2023/06/07 02:48:36;;;;;;;55.00;6.82;;;;;;;22.95;60.89;99565.16;7311279;19;129495;-40
2023/06/07 02:51:02;;;;;;;30.60;6.07;;;;;;;23.06;61.50;99592.94;7308818;19;129291;-42
2023/06/07 02:53:27;;;;;;;53.40;7.37;;;;;;;23.00;61.28;99572.56;7309455;19;129384;-41
2023/06/07 02:55:53;;;;;;;69.20;7.63;;;;;;;23.06;60.83;99585.06;7308258;19;129471;-41
2023/06/07 02:58:18;;;;;;;48.53;6.73;;;;;;;23.05;60.80;99583.41;7309944;19;129552;-41
2023/06/07 03:00:46;;;;;;;44.93;6.43;;;;;;;23.06;61.22;99585.06;7310209;19;129061;-38
2023/06/07 03:03:12;;;;;;;69.70;7.90;;;;;;;23.05;61.08;99583.41;7306564;19;129040;-36
2023/06/07 03:05:40;;;;;;;100.30;9.77;;;;;;;23.03;61.30;99580.13;7309662;19;129169;-42
2023/06/07 03:08:10;;;;;;;59.08;7.28;;;;;;;23.05;61.24;99583.41;7309663;19;131423;-39
2023/06/07 03:10:35;;;;;;;53.47;7.22;;;;;;;23.05;61.27;99588.66;7309332;19;130352;-42
2023/06/07 03:13:00;;;;;;;43.27;7.07;;;;;;;23.03;61.70;99585.38;7312963;19;130389;-40
2023/06/07 03:15:27;;;;;;;50.97;6.38;;;;;;;23.00;61.10;99581.25;7313794;19;132294;-41
2023/06/07 03:17:53;;;;;;;;;;;;;;;23.13;61.43;99586.13;7318181;19;130571;-41
2023/06/07 03:20:20;;;;;;;49.47;6.93;;;;;;;23.04;61.21;99584.38;7317265;19;130234;-41
2023/06/07 03:22:46;;;;;;;41.50;6.22;;;;;;;23.06;60.92;99585.06;7315433;19;129043;-40
2023/06/07 03:25:11;;;;;;;63.28;7.28;;;;;;;23.05;60.94;99591.28;7314158;19;129713;-39
2023/06/07 03:27:36;;;;;;;64.10;6.57;;;;;;;23.06;61.67;99590.31;7315981;19;130347;-40
2023/06/07 03:30:03;;;;;;;36.83;6.20;;;;;;;23.06;61.01;99592.94;7315269;19;129464;-41
2023/06/07 03:32:28;;;;;;;75.15;8.35;;;;;;;22.91;61.50;99570.81;7317179;19;129509;-40
2023/06/07 03:34:53;;;;;;;61.35;7.70;;;;;;;23.05;61.82;99596.53;7315040;19;129085;-40
2023/06/07 03:37:19;;;;;;;52.90;7.03;;;;;;;23.05;61.39;99599.16;7316445;19;130997;-41
2023/06/07 03:39:44;;;;;;;49.70;7.07;;;;;;;23.03;61.53;99595.84;7315650;19;129594;-42
2023/06/07 03:42:09;;;;;;;25.50;5.77;;;;;;;22.96;61.35;99584.31;7313480;19;129291;-39
2023/06/07 03:44:35;;;;;;;95.18;9.40;;;;;;;23.02;61.86;99586.34;7312881;19;129529;-39
2023/06/07 03:47:00;;;;;;;59.23;7.23;;;;;;;22.94;61.27;99584.44;7314188;19;130173;-40
2023/06/07 03:49:25;;;;;;;53.87;7.10;;;;;;;23.04;60.92;99593.06;7314005;19;130058;-40
2023/06/07 03:51:51;;;;;;;46.30;7.03;;;;;;;23.00;61.13;99590.91;7315203;19;128835;-42
2023/06/07 03:54:16;;;;;;;74.82;8.20;;;;;;;23.05;61.25;99601.78;7313763;19;129102;-36
2023/06/07 03:56:42;;;;;;;29.63;5.78;;;;;;;23.05;61.14;99599.16;7317521;19;130533;-39
2023/06/07 03:59:07;;;;;;;38.53;6.20;;;;;;;23.05;60.77;99599.16;7313233;19;129078;-41
2023/06/07 04:01:32;;;;;;;70.53;7.80;;;;;;;23.02;60.98;99594.22;7314102;19;129137;-40
2023/06/07 04:03:58;;;;;;;73.72;7.65;;;;;;;23.03;61.55;99601.09;7313370;19;129158;-38
2023/06/07 04:06:26;;;;;;;11.68;5.18;;;;;;;22.98;61.39;99595.47;7316247;19;130867;-42
2023/06/07 04:08:52;;;;;;;49.65;7.18;;;;;;;23.01;61.53;99598.63;7313804;19;129449;-41
2023/06/07 04:11:19;;;;;;;45.42;6.70;;;;;;;23.01;61.13;99597.78;7315030;19;128827;-41
2023/06/07 04:13:44;;;;;;;109.13;10.60;;;;;;;22.99;61.41;99595.31;7313335;19;130020;-39
2023/06/07 04:16:10;;;;;;;60.73;8.77;;;;;;;23.02;61.38;99595.00;7313952;19;132872;-42
2023/06/07 04:18:35;;;;;;;40.60;6.65;;;;;;;23.01;60.98;99597.78;7316767;19;129506;-41
2023/06/07 04:21:01;;;;;;;88.13;8.60;;;;;;;23.02;60.93;99595.00;7313562;19;129067;-40
2023/06/07 04:23:26;;;;;;;48.47;7.00;;;;;;;23.05;61.13;99604.41;7313041;19;130125;-38
2023/06/07 04:25:55;;;;;;;72.80;8.20;;;;;;;23.01;60.71;99595.16;7310424;19;130804;-41
2023/06/07 04:28:23;;;;;;;38.33;7.00;;;;;;;23.02;60.46;99602.09;7315449;19;129591;-41
2023/06/07 04:30:51;;;;;;;70.88;8.23;;;;;;;23.02;61.26;99604.72;7316604;19;129157;-42
2023/06/07 04:33:19;;;;;;;52.30;7.07;;;;;;;22.99;61.20;99599.75;7313288;19;130840;-41
2023/06/07 04:35:45;;;;;;;31.27;6.22;;;;;;;22.94;61.06;99586.28;7316339;19;129442;-41
2023/06/07 04:38:12;;;;;;;65.45;9.00;;;;;;;23.01;61.29;99601.25;7314468;19;129176;-40
2023/06/07 04:40:41;;;;;;;65.05;8.43;;;;;;;23.04;60.84;99597.50;7311947;19;129451;-39
2023/06/07 04:43:08;;;;;;;27.77;6.47;;;;;;;22.98;60.76;99593.69;7312814;19;129270;-39
2023/06/07 04:45:39;;;;;;;65.57;8.20;;;;;;;23.00;61.75;99596.16;7311059;19;129452;-39
2023/06/07 04:48:07;;;;;;;40.72;7.45;;;;;;;22.99;61.44;99590.06;7313995;19;129365;-41
2023/06/07 04:50:33;;;;;;;115.65;12.02;;;;;;;23.02;61.45;99596.84;7314421;19;129976;-39
2023/06/07 04:53:03;;;;;;;60.87;7.80;;;;;;;22.99;61.20;99590.06;7314352;19;130083;-39
2023/06/07 04:55:34;;;;;;;43.42;7.80;;;;;;;23.01;61.36;99592.53;7315645;19;130550;-40
2023/06/07 04:58:04;;;;;;;52.30;8.27;;;;;;;23.00;60.81;99585.66;7310542;19;129716;-41
2023/06/07 05:00:30;;;;;;;72.10;9.48;;;;;;;23.00;61.65;99590.91;7314743;19;128965;-40
2023/06/07 05:02:56;;;;;;;67.32;8.25;;;;;;;22.92;61.61;99575.91;7310202;19;129630;-43
2023/06/07 05:05:22;;;;;;;48.67;7.77;;;;;;;23.02;61.34;99592.41;7311076;19;129271;-39
2023/06/07 05:07:49;;;;;;;36.75;7.05;;;;;;;23.02;61.62;99594.22;7311992;19;129569;-40
2023/06/07 05:10:16;;;;;;;54.40;8.55;;;;;;;23.01;61.43;99597.78;7311487;19;129362;-38
2023/06/07 05:12:41;;;;;;;71.40;8.45;;;;;;;23.01;61.14;99593.38;7307976;19;130330;-40
2023/06/07 05:15:07;;;;;;;79.87;8.73;;;;;;;23.05;60.64;99600.00;7309716;19;129502;-38
2023/06/07 05:17:34;;;;;;;95.53;9.90;;;;;;;23.01;61.68;99597.78;7312455;19;129057;-40
2023/06/07 05:19:59;;;;;;;36.15;6.57;;;;;;;22.98;61.72;99608.59;7314234;19;130256;-39
2023/06/07 05:22:25;;;;;;;49.97;7.60;;;;;;;22.98;60.82;99601.56;7312429;19;130157;-39
2023/06/07 05:24:50;;;;;;;15.48;5.38;;;;;;;22.91;61.36;99591.78;7312872;19;129613;-40
2023/06/07 05:27:16;;;;;;;50.17;7.00;;;;;;;23.04;61.65;99613.22;7314086;19;129085;-40
2023/06/07 05:29:41;;;;;;;32.28;5.88;;;;;;;23.09;60.21;99610.97;7314428;19;129283;-39
2023/06/07 05:32:07;;;;;;;51.87;6.83;;;;;;;23.09;60.75;99611.81;7314437;19;129068;-40
2023/06/07 05:34:32;;;;;;;37.70;6.60;;;;;;;23.03;61.11;99595.84;7312093;19;129806;-42
2023/06/07 05:36:58;;;;;;;30.77;5.63;;;;;;;23.10;59.96;99607.41;7314343;19;128893;-40
2023/06/07 05:39:23;;;;;;;30.87;5.27;;;;;;;23.11;59.98;99609.03;7312868;19;129391;-40
2023/06/07 05:41:49;;;;;;;76.73;7.17;;;;;;;23.13;60.99;99607.09;7312773;19;129546;-40
2023/06/07 05:44:18;;;;;;;37.70;5.82;;;;;;;23.11;60.32;99609.03;7311385;19;128816;-40
2023/06/07 05:46:43;;;;;;;17.43;5.10;;;;;;;23.12;60.48;99614.13;7314300;19;129396;-41
2023/06/07 05:49:08;;;;;;;48.97;5.82;;;;;;;23.11;60.15;99614.28;7313124;19;128779;-40
2023/06/07 05:51:34;;;;;;;55.42;6.32;;;;;;;23.09;60.03;99605.75;7313921;19;129516;-41
2023/06/07 05:54:00;;;;;;;48.67;5.85;;;;;;;23.11;60.69;99614.28;7312935;19;130304;-40
2023/06/07 05:56:27;;;;;;;35.67;5.55;;;;;;;23.10;60.43;99617.91;7313320;19;129499;-39
2023/06/07 05:58:53;;;;;;;42.05;5.93;;;;;;;23.09;61.01;99619.69;7313326;19;129753;-39
2023/06/07 06:01:18;;;;;;;69.22;7.35;;;;;;;23.08;59.73;99614.59;7312227;19;129090;-41
2023/06/07 06:03:44;;;;;;;29.70;5.47;;;;;;;23.10;60.46;99612.66;7311322;19;129320;-41
2023/06/07 06:06:17;;;;;;;28.50;5.03;;;;;;;23.12;61.26;99614.13;7314048;19;129174;-41
2023/06/07 06:08:43;;;;;;;24.35;5.43;;;;;;;23.00;60.49;99596.16;7314776;19;128974;-42
2023/06/07 06:11:13;;;;;;;44.47;6.35;;;;;;;23.11;60.26;99620.38;7313829;19;129164;-40
2023/06/07 06:13:39;;;;;;;34.00;5.35;;;;;;;23.08;60.39;99614.59;7313366;19;129327;-40
2023/06/07 06:16:05;;;;;;;28.48;5.32;;;;;;;23.07;60.40;99607.72;7313298;19;129038;-41
2023/06/07 06:18:30;;;;;;;29.20;5.47;;;;;;;23.09;61.00;99610.97;7313486;19;129072;-42
2023/06/07 06:20:56;;;;;;;54.77;6.33;;;;;;;23.09;60.38;99614.44;7312855;19;129150;-41
2023/06/07 06:23:22;;;;;;;39.95;6.07;;;;;;;23.06;61.05;99613.91;7311468;19;129785;-40
2023/06/07 06:25:47;;;;;;;7.93;4.50;;;;;;;23.06;60.18;99614.75;7313567;19;129036;-40
2023/06/07 06:28:13;;;;;;;40.53;6.00;;;;;;;23.08;61.00;99615.44;7313525;19;128936;-42
2023/06/07 06:30:38;;;;;;;48.67;6.40;;;;;;;23.07;61.11;99618.19;7313335;19;129664;-42
2023/06/07 06:33:03;;;;;;;28.90;5.38;;;;;;;23.07;60.99;99618.19;7313313;19;129523;-38
2023/06/07 06:35:32;;;;;;;34.40;5.53;;;;;;;23.06;60.54;99621.78;7313131;19;128763;-42
2023/06/07 06:37:58;;;;;;;46.70;6.03;;;;;;;23.06;60.51;99616.53;7312918;19;129444;-40
2023/06/07 06:40:23;;;;;;;59.72;6.82;;;;;;;23.08;60.59;99619.84;7312145;19;129296;-41
2023/06/07 06:42:48;;;;;;;34.40;5.22;;;;;;;23.08;60.44;99614.59;7311293;19;129769;-38
2023/06/07 06:45:14;;;;;;;31.77;5.67;;;;;;;23.09;60.65;99618.84;7309858;19;129235;-39
2023/06/07 06:47:41;;;;;;;55.90;6.23;;;;;;;23.09;60.04;99616.22;7310063;19;129328;-40
2023/06/07 06:50:09;;;;;;;46.05;5.47;;;;;;;23.08;61.04;99619.84;7312593;19;129508;-41
2023/06/07 06:52:34;;;;;;;54.50;6.07;;;;;;;23.09;60.79;99616.22;7312275;19;130409;-40
2023/06/07 06:55:00;;;;;;;34.40;5.33;;;;;;;23.06;60.24;99616.53;7310418;19;128795;-42
2023/06/07 06:57:25;;;;;;;42.72;5.82;;;;;;;22.99;60.04;99597.13;7313135;19;129337;-42
2023/06/07 06:59:51;;;;;;;46.03;5.83;;;;;;;23.07;60.59;99615.56;7312729;19;130226;-41
2023/06/07 07:02:16;;;;;;;33.37;5.13;;;;;;;23.06;60.84;99619.16;7311368;19;129173;-42
2023/06/07 07:04:42;;;;;;;31.63;5.78;;;;;;;23.07;60.33;99620.81;7310585;19;129317;-42
2023/06/07 07:07:07;;;;;;;59.15;6.50;;;;;;;23.06;60.55;99617.38;7312499;19;129095;-40
2023/06/07 07:09:33;;;;;;;35.60;5.47;;;;;;;23.03;60.52;99619.44;7312326;19;130703;-41
2023/06/07 07:11:58;;;;;;;29.50;5.43;;;;;;;23.07;60.83;99624.25;7311379;19;129354;-42
2023/06/07 07:14:24;;;;;;;30.63;5.47;;;;;;;23.07;60.16;99626.06;7310397;19;129574;-41
2023/06/07 07:16:49;;;;;;;55.50;6.35;;;;;;;22.94;60.27;99608.06;7312087;19;129241;-40
2023/06/07 07:19:14;;;;;;;20.17;4.70;;;;;;;23.06;60.65;99627.00;7313071;19;130163;-41
2023/06/07 07:21:40;;;;;;;43.43;5.83;;;;;;;23.03;60.73;99622.91;7310643;19;129919;-41
2023/06/07 07:24:06;;;;;;;29.87;5.23;;;;;;;23.05;60.54;99620.97;7309929;19;128672;-41
2023/06/07 07:26:32;;;;;;;50.67;6.17;;;;;;;22.98;59.87;99612.03;7311796;19;129247;-40
2023/06/07 07:28:57;;;;;;;30.90;5.50;;;;;;;23.05;60.27;99633.25;7311575;19;130005;-42
2023/06/07 07:31:22;;;;;;;29.95;5.75;;;;;;;22.96;61.02;99618.38;7311199;19;130006;-42
2023/06/07 07:33:48;;;;;;;37.97;6.13;;;;;;;23.05;60.26;99638.50;7309950;19;129012;-41
2023/06/07 07:36:14;;;;;;;35.13;5.77;;;;;;;22.94;60.57;99615.13;7311125;19;129223;-40
2023/06/07 07:38:40;;;;;;;;;;;;;;;23.01;60.38;99610.91;7312578;19;129163;-39
2023/06/07 07:41:05;;;;;;;31.20;5.70;;;;;;;23.06;60.16;99638.34;7310828;19;130520;-41
2023/06/07 07:43:31;;;;;;;39.00;5.73;;;;;;;23.07;60.13;99633.94;7309661;19;128928;-41
2023/06/07 07:45:56;;;;;;;41.88;5.18;;;;;;;23.06;60.10;99634.88;7311370;19;129019;-39
2023/06/07 07:48:21;;;;;;;50.00;6.27;;;;;;;22.97;60.14;99622.69;7311740;19;129172;-42
2023/06/07 07:50:47;;;;;;;47.70;6.33;;;;;;;23.07;60.32;99633.94;7309563;19;129311;-41
2023/06/07 07:53:12;;;;;;;46.45;6.00;;;;;;;23.07;59.85;99629.50;7311341;19;129545;-41
2023/06/07 07:55:37;;;;;;;35.70;5.80;;;;;;;23.07;60.81;99628.69;7311326;19;129221;-41
2023/06/07 07:58:03;;;;;;;28.97;5.20;;;;;;;22.94;60.18;99618.53;7311539;19;129044;-40
2023/06/07 08:00:29;;;;;;;72.83;8.13;;;;;;;23.05;60.24;99636.69;7317395;19;129452;-40
2023/06/07 08:02:54;;;;;;;43.53;6.23;;;;;;;22.94;60.60;99617.72;7317857;19;129454;-41
2023/06/07 08:05:20;;;;;;;40.17;5.77;;;;;;;23.05;59.63;99633.25;7316272;19;129018;-41
2023/06/07 08:07:46;;;;;;;34.22;5.43;;;;;;;23.05;60.16;99634.09;7317639;19;130478;-41
2023/06/07 08:10:11;;;;;;;33.83;5.97;;;;;;;23.03;60.38;99627.31;7317587;19;130442;-40
2023/06/07 08:12:37;;;;;;;52.07;6.13;;;;;;;23.06;60.85;99627.84;7317039;19;129086;-40
2023/06/07 08:15:03;;;;;;;28.63;5.10;;;;;;;23.06;60.31;99627.84;7317036;19;129620;-40
2023/06/07 08:17:28;;;;;;;28.27;5.00;;;;;;;23.06;60.01;99627.00;7318375;19;129301;-42
2023/06/07 08:19:53;;;;;;;52.55;6.65;;;;;;;22.98;60.71;99619.06;7317290;19;129689;-38
2023/06/07 08:22:19;;;;;;;33.20;5.50;;;;;;;23.07;60.46;99628.69;7316406;19;128862;-41
2023/06/07 08:24:44;;;;;;;35.45;5.40;;;;;;;23.04;60.41;99624.53;7315785;19;129365;-40
2023/06/07 08:27:10;;;;;;;31.77;5.40;;;;;;;23.04;60.34;99627.16;7317423;19;129719;-41
2023/06/07 08:29:35;;;;;;;37.50;5.57;;;;;;;23.05;60.35;99630.63;7317263;19;131193;-40
2023/06/07 08:32:01;;;;;;;51.50;5.83;;;;;;;23.03;60.39;99633.41;7317255;19;129064;-42
2023/06/07 08:34:29;;;;;;;20.80;4.50;;;;;;;23.04;59.38;99629.78;7315496;19;129468;-39
2023/06/07 08:36:54;;;;;;;31.92;5.00;;;;;;;23.05;60.75;99634.09;7316165;19;129673;-38
2023/06/07 08:39:21;;;;;;;26.83;5.13;;;;;;;22.95;59.93;99619.38;7316746;19;130319;-42
2023/06/07 08:41:46;;;;;;;41.80;5.68;;;;;;;23.05;60.24;99635.88;7316079;19;129254;-42
2023/06/07 08:44:11;;;;;;;43.57;5.57;;;;;;;23.03;59.33;99635.19;7314042;19;129091;-40
2023/06/07 08:46:37;;;;;;;32.15;5.22;;;;;;;23.01;60.53;99626.63;7316239;19;129433;-40
2023/06/07 08:49:03;;;;;;;56.50;6.75;;;;;;;23.04;60.29;99634.19;7316446;19;129024;-40
2023/06/07 08:51:28;;;;;;;26.87;4.73;;;;;;;23.06;60.42;99640.13;7315995;19;129680;-41
2023/06/07 08:53:56;;;;;;;41.93;5.87;;;;;;;23.04;59.91;99640.28;7314765;19;129437;-41
2023/06/07 08:56:24;;;;;;;31.90;5.65;;;;;;;23.02;59.27;99639.59;7315839;19;129425;-42
2023/06/07 08:58:50;;;;;;;41.10;5.32;;;;;;;22.95;59.88;99619.38;7315470;19;129645;-42
2023/06/07 09:01:17;;;;;;;52.88;6.65;;;;;;;23.03;60.11;99636.03;7315554;19;129712;-40
2023/06/07 09:03:43;;;;;;;33.38;5.22;;;;;;;23.02;60.23;99644.03;7314517;19;129030;-41
2023/06/07 09:06:08;;;;;;;44.60;5.53;;;;;;;23.03;60.21;99640.44;7316106;19;129423;-42
2023/06/07 09:08:34;;;;;;;32.85;5.57;;;;;;;23.02;60.71;99641.41;7315569;19;129653;-42
2023/06/07 09:10:59;;;;;;;33.67;5.50;;;;;;;23.01;60.30;99645.00;7314933;19;129425;-41
2023/06/07 09:13:24;;;;;;;17.15;4.63;;;;;;;22.98;60.42;99640.03;7313460;19;129046;-38
2023/06/07 09:15:53;;;;;;;35.83;5.50;;;;;;;22.99;59.83;99642.50;7315119;19;129631;-41
2023/06/07 09:18:18;;;;;;;61.13;6.40;;;;;;;23.01;60.44;99639.75;7315862;19;129622;-40
2023/06/07 09:20:44;;;;;;;33.60;5.47;;;;;;;23.02;60.54;99644.84;7316271;19;128647;-41
2023/06/07 09:23:14;;;;;;;33.03;5.27;;;;;;;23.01;60.25;99642.38;7315128;19;129225;-40
2023/06/07 09:25:40;;;;;;;29.45;5.20;;;;;;;23.02;60.36;99642.22;7315172;19;129636;-40
2023/06/07 09:28:10;;;;;;;50.33;6.10;;;;;;;23.00;61.06;99638.09;7314724;19;129156;-41
2023/06/07 09:30:51;;;;;;;38.72;5.75;;;;;;;23.05;60.56;99641.13;7315268;19;128811;-40
2023/06/07 09:33:33;;;;;;;57.35;6.32;;;;;;;23.06;60.66;99640.13;7314965;19;129183;-39
2023/06/07 09:36:05;;;;;;;33.22;4.57;;;;;;;23.03;60.86;99643.06;7315136;19;130246;-42
2023/06/07 09:38:33;;;;;;;17.65;4.40;;;;;;;23.05;60.35;99643.75;7314841;19;129409;-41
2023/06/07 09:40:59;;;;;;;7.90;3.58;;;;;;;23.02;60.47;99638.78;7314238;19;129016;-41
2023/06/07 09:43:25;;;;;;;59.58;6.53;;;;;;;22.92;60.74;99619.66;7312790;19;129668;-42
2023/06/07 09:45:54;;;;;;;34.33;5.00;;;;;;;23.03;60.95;99640.44;7314815;19;129707;-41
2023/06/07 09:48:20;;;;;;;31.63;5.22;;;;;;;23.03;60.21;99632.56;7314697;19;129618;-42
2023/06/07 09:50:58;;;;;;;33.60;4.80;;;;;;;23.04;60.26;99634.19;7313159;19;128901;-40
2023/06/07 09:53:24;;;;;;;39.28;5.13;;;;;;;22.99;60.29;99632.03;7314195;19;129257;-40
2023/06/07 09:55:49;;;;;;;63.67;5.97;;;;;;;22.88;60.71;99634.88;7313080;19;129442;-39
2023/06/07 09:58:22;;;;;;;37.92;5.22;;;;;;;22.91;60.73;99639.81;7315017;19;129233;-42
2023/06/07 10:00:48;;;;;;;23.13;4.45;;;;;;;23.00;60.29;99638.09;7313168;19;129081;-39
2023/06/07 10:03:14;;;;;;;36.53;4.87;;;;;;;23.00;60.75;99635.47;7312215;19;128946;-38
2023/06/07 10:05:41;;;;;;;50.15;5.25;;;;;;;22.99;59.10;99634.66;7313159;19;129298;-38
2023/06/07 10:08:08;;;;;;;28.00;4.80;;;;;;;22.98;60.31;99630.41;7314535;19;129699;-39
2023/06/07 10:10:35;;;;;;;65.57;7.28;;;;;;;22.99;60.55;99632.03;7314232;19;129568;-39
2023/06/07 10:13:05;;;;;;;36.60;4.90;;;;;;;23.03;60.67;99633.41;7313864;19;129253;-38
2023/06/07 10:15:31;;;;;;;53.15;5.70;;;;;;;22.95;59.88;99619.38;7310222;19;130486;-39
2023/06/07 10:18:03;;;;;;;41.20;5.18;;;;;;;22.99;60.73;99620.75;7313758;19;129398;-39
2023/06/07 10:20:40;;;;;;;105.88;8.48;;;;;;;23.01;60.37;99624.00;7312674;19;128965;-39
2023/06/07 10:23:10;;;;;;;45.20;5.20;;;;;;;23.00;59.29;99623.22;7309393;19;129150;-39
2023/06/07 10:26:02;;;;;;;129.73;9.18;;;;;;;23.00;60.61;99615.34;7311910;19;129207;-39
2023/06/07 10:28:40;;;;;;;29.65;4.90;;;;;;;22.98;60.17;99614.66;7312609;19;130161;-38
2023/06/07 10:31:10;;;;;;;38.97;4.95;;;;;;;23.02;60.73;99615.19;7311325;19;128815;-38
2023/06/07 10:33:38;;;;;;;47.78;5.55;;;;;;;23.02;60.27;99616.00;7312899;19;128882;-38
2023/06/07 10:36:08;;;;;;;35.58;5.00;;;;;;;23.05;60.33;99614.91;7313152;19;129079;-38
2023/06/07 10:38:34;;;;;;;36.65;5.30;;;;;;;22.95;59.35;99599.22;7313708;19;129444;-38
2023/06/07 10:41:01;;;;;;;111.93;8.53;;;;;;;23.03;59.57;99611.59;7310797;19;130058;-39
2023/06/07 10:43:28;;;;;;;54.50;5.43;;;;;;;23.07;59.06;99612.94;7311119;19;129345;-37
2023/06/07 10:46:17;;;;;;;39.55;4.60;;;;;;;23.09;60.18;99617.06;7313056;19;129039;-38
2023/06/07 10:48:45;;;;;;;40.05;4.70;;;;;;;23.06;59.89;99621.78;7312739;19;129853;-38
2023/06/07 10:51:11;;;;;;;19.25;4.05;;;;;;;23.04;59.68;99615.84;7311954;19;128785;-38
2023/06/07 10:53:49;;;;;;;42.08;5.10;;;;;;;23.05;60.35;99620.13;7312008;19;128959;-39
2023/06/07 10:56:26;;;;;;;49.45;5.22;;;;;;;23.07;60.57;99623.44;7311375;19;129345;-39
2023/06/07 10:58:51;;;;;;;;;;;;;;;23.12;60.88;99623.81;7313827;19;129647;-39
2023/06/07 11:01:24;;;;;;;49.13;4.97;;;;;;;23.05;59.98;99614.91;7313320;19;129016;-39
2023/06/07 11:03:50;;;;;;;31.10;4.50;;;;;;;23.02;59.69;99620.44;7310528;19;128957;-39
2023/06/07 11:06:16;;;;;;;32.20;4.93;;;;;;;23.01;59.13;99619.59;7312241;19;129427;-39
2023/06/07 11:08:41;;;;;;;41.42;5.10;;;;;;;23.05;60.50;99617.50;7311735;19;129496;-38
2023/06/07 11:11:40;;;;;;;57.43;5.67;;;;;;;23.07;60.40;99619.00;7311772;19;128996;-38
2023/06/07 11:14:06;;;;;;;59.75;5.72;;;;;;;22.95;59.90;99608.88;7311296;19;129219;-39
2023/06/07 11:16:31;;;;;;;32.85;4.22;;;;;;;23.06;59.43;99627.84;7313065;19;130953;-38
2023/06/07 11:19:05;;;;;;;26.47;3.97;;;;;;;23.05;59.97;99628.84;7313130;19;129544;-38